Time;durP1;ratioP1;P1;durP2;ratioP2;P2;SDS_P1;SDS_P2;PMS_P1;PMS_P2;Temp;Humidity;BMP_temperature;BMP_pressure;BME280_temperature;BME280_humidity;BME280_pressure;Samples;Min_cycle;Max_cycle;Signal;HPM_P1;HPM_P2
2021/12/27 00:00:44;;;;;;;65.57;27.65;;;-7.70;89.00;;;;;;5019371;28;20058;-75
2021/12/27 00:03:11;;;;;;;79.22;27.15;;;-7.70;88.80;;;;;;5018528;28;20025;-75
2021/12/27 00:05:37;;;;;;;72.90;28.10;;;-7.70;88.60;;;;;;5018178;28;20022;-75
2021/12/27 00:08:03;;;;;;;70.88;27.65;;;-7.70;88.60;;;;;;5021354;28;20077;-75
2021/12/27 00:10:29;;;;;;;76.30;27.13;;;-7.70;88.40;;;;;;5035029;28;20022;-74
2021/12/27 00:12:56;;;;;;;80.07;28.33;;;-7.70;88.40;;;;;;5034895;28;20463;-73
2021/12/27 00:15:23;;;;;;;74.70;26.35;;;-7.70;88.50;;;;;;5017083;28;20029;-75
2021/12/27 00:17:49;;;;;;;71.57;27.70;;;-7.70;88.30;;;;;;5016945;28;20044;-75
2021/12/27 00:20:17;;;;;;;72.70;27.63;;;-7.70;88.10;;;;;;5034788;28;20028;-75
2021/12/27 00:22:45;;;;;;;71.18;26.88;;;-7.70;88.10;;;;;;5035002;28;20030;-75
2021/12/27 00:25:11;;;;;;;73.70;26.83;;;-7.70;88.10;;;;;;5034502;28;20021;-75
2021/12/27 00:27:37;;;;;;;79.93;28.60;;;-7.70;88.10;;;;;;5034601;28;20025;-74
2021/12/27 00:30:04;;;;;;;82.80;29.65;;;-7.70;88.10;;;;;;5034407;28;20388;-75
2021/12/27 00:32:30;;;;;;;64.88;24.65;;;-7.70;88.10;;;;;;5034563;28;20030;-75
2021/12/27 00:34:55;;;;;;;68.90;25.20;;;-7.70;87.90;;;;;;5034629;28;20021;-74
2021/12/27 00:37:21;;;;;;;87.32;27.92;;;-7.80;87.80;;;;;;5034400;28;20461;-76
2021/12/27 00:39:47;;;;;;;73.68;23.88;;;-7.80;87.70;;;;;;5034574;28;20025;-75
2021/12/27 00:42:13;;;;;;;74.18;27.25;;;-7.80;87.60;;;;;;5016818;28;20044;-75
2021/12/27 00:44:38;;;;;;;64.32;26.58;;;-7.80;87.50;;;;;;5034036;28;20022;-75
2021/12/27 00:47:04;;;;;;;77.50;25.70;;;-7.80;87.50;;;;;;5016436;28;20112;-75
2021/12/27 00:49:30;;;;;;;73.15;28.95;;;-7.80;87.50;;;;;;5034629;28;20076;-74
2021/12/27 00:51:56;;;;;;;67.38;27.58;;;-7.80;87.50;;;;;;5034418;28;20022;-74
2021/12/27 00:54:21;;;;;;;68.80;28.05;;;-7.80;87.60;;;;;;5034604;28;20017;-74
2021/12/27 00:56:47;;;;;;;73.18;28.20;;;-7.80;87.60;;;;;;5034063;28;20028;-74
2021/12/27 00:59:13;;;;;;;69.20;26.30;;;-7.90;87.40;;;;;;5034320;28;20052;-74
2021/12/27 01:01:38;;;;;;;77.82;24.20;;;-7.90;87.40;;;;;;5016241;28;20327;-76
2021/12/27 01:04:06;;;;;;;74.05;28.58;;;-7.90;87.30;;;;;;5034252;28;20022;-75
2021/12/27 01:06:31;;;;;;;68.30;27.88;;;-7.90;87.20;;;;;;5016560;28;20115;-74
2021/12/27 01:08:57;;;;;;;65.10;26.55;;;-7.90;87.30;;;;;;5033986;28;20502;-74
2021/12/27 01:11:38;;;;;;;71.35;27.17;;;-7.90;87.30;;;;;;5033913;28;20391;-74
2021/12/27 01:16:30;;;;;;;73.65;27.48;;;-7.90;87.10;;;;;;5034098;28;20025;-73
2021/12/27 01:18:56;;;;;;;80.30;28.42;;;-7.90;87.90;;;;;;5034083;28;20040;-74
2021/12/27 01:21:23;;;;;;;68.15;28.23;;;-7.90;87.20;;;;;;5033641;28;20423;-76
2021/12/27 01:23:51;;;;;;;71.40;24.92;;;-7.90;87.10;;;;;;5016381;28;20052;-76
2021/12/27 01:26:17;;;;;;;77.60;27.48;;;-8.00;86.90;;;;;;5015696;28;20033;-75
2021/12/27 01:28:44;;;;;;;91.93;26.70;;;-8.00;86.80;;;;;;5033276;28;20035;-75
2021/12/27 01:31:10;;;;;;;87.15;28.08;;;-8.00;86.90;;;;;;5016412;28;20105;-73
2021/12/27 01:33:37;;;;;;;72.00;27.15;;;-8.00;87.00;;;;;;5033502;28;20036;-75
2021/12/27 01:36:05;;;;;;;69.40;28.90;;;-8.10;86.90;;;;;;5015962;28;20064;-74
2021/12/27 01:38:30;;;;;;;76.03;28.65;;;-8.10;86.90;;;;;;5033522;28;20092;-75
2021/12/27 01:40:57;;;;;;;80.75;28.73;;;-8.10;87.00;;;;;;5033271;28;20022;-75
2021/12/27 01:43:27;;;;;;;79.72;27.65;;;-8.10;87.10;;;;;;5015651;28;20029;-74
2021/12/27 01:45:56;;;;;;;74.15;25.17;;;-8.20;86.90;;;;;;5033592;28;20018;-75
2021/12/27 01:48:25;;;;;;;78.13;28.38;;;-8.20;87.00;;;;;;5033406;28;20022;-75
2021/12/27 01:50:53;;;;;;;57.67;24.75;;;-8.20;87.00;;;;;;5033310;28;20076;-75
2021/12/27 01:53:21;;;;;;;81.63;28.05;;;-8.20;87.00;;;;;;5015520;28;20049;-75
2021/12/27 01:55:47;;;;;;;76.05;25.85;;;-8.20;87.00;;;;;;5033877;28;20040;-74
2021/12/27 01:58:14;;;;;;;70.13;28.88;;;-8.30;87.00;;;;;;5015695;28;20399;-74
2021/12/27 02:00:44;;;;;;;74.38;27.30;;;-8.30;87.10;;;;;;5033305;28;20040;-75
2021/12/27 02:03:10;;;;;;;70.82;25.25;;;-8.30;87.20;;;;;;5015507;28;20041;-75
2021/12/27 02:05:36;;;;;;;67.13;26.00;;;-8.30;87.30;;;;;;5033388;28;20026;-75
2021/12/27 02:08:03;;;;;;;69.68;25.42;;;-8.30;87.30;;;;;;5032928;28;20045;-75
2021/12/27 02:10:29;;;;;;;74.25;26.45;;;-8.30;87.30;;;;;;5033296;28;20024;-75
2021/12/27 02:12:55;;;;;;;69.90;25.20;;;-8.30;87.50;;;;;;5033420;28;20025;-76
2021/12/27 02:15:20;;;;;;;72.00;24.13;;;-8.30;87.50;;;;;;5015382;28;20018;-74
2021/12/27 02:17:47;;;;;;;65.53;24.25;;;-8.30;87.50;;;;;;5016295;28;20029;-75
2021/12/27 02:20:22;;;;;;;71.70;24.67;;;-8.30;87.50;;;;;;5034207;28;20030;-75
2021/12/27 02:22:48;;;;;;;74.32;25.45;;;-8.40;87.50;;;;;;5034313;28;20034;-75
2021/12/27 02:25:15;;;;;;;63.17;23.17;;;-8.40;87.50;;;;;;5034518;28;20025;-75
2021/12/27 02:27:43;;;;;;;73.97;24.88;;;-8.40;87.60;;;;;;5034597;28;20026;-75
2021/12/27 02:30:12;;;;;;;68.78;26.05;;;-8.40;87.80;;;;;;5033958;28;20014;-75
2021/12/27 02:32:52;;;;;;;66.90;25.13;;;-8.40;87.80;;;;;;5034201;28;20022;-73
2021/12/27 02:35:23;;;;;;;67.80;24.52;;;-8.30;87.70;;;;;;5034101;28;20025;-76
2021/12/27 02:37:49;;;;;;;;;;;-8.30;88.40;;;;;;5034219;28;20022;-75
2021/12/27 02:40:15;;;;;;;77.10;23.15;;;-8.30;87.70;;;;;;5036071;28;19928;-76
2021/12/27 02:43:03;;;;;;;52.30;22.98;;;-8.30;87.70;;;;;;5038168;28;20033;-75
2021/12/27 02:45:31;;;;;;;64.40;24.80;;;-8.30;87.70;;;;;;5036997;28;20030;-74
2021/12/27 02:47:58;;;;;;;65.05;24.45;;;-8.30;87.50;;;;;;5037655;28;20045;-74
2021/12/27 02:50:25;;;;;;;61.35;23.88;;;-8.30;87.40;;;;;;5020727;28;20079;-74
2021/12/27 02:52:51;;;;;;;55.92;21.83;;;-8.30;87.60;;;;;;5037634;28;20092;-74
2021/12/27 02:55:17;;;;;;;59.47;21.63;;;-8.30;87.40;;;;;;5036731;28;20474;-73
2021/12/27 02:57:48;;;;;;;63.55;24.40;;;-8.20;87.40;;;;;;5037418;28;20029;-75
2021/12/27 03:00:19;;;;;;;60.08;21.92;;;-8.20;87.00;;;;;;5037543;28;20120;-74
2021/12/27 03:02:47;;;;;;;61.38;22.35;;;-8.20;86.90;;;;;;5036871;28;20052;-76
2021/12/27 03:05:16;;;;;;;61.53;22.85;;;-8.30;86.70;;;;;;5036467;28;20049;-73
2021/12/27 03:07:43;;;;;;;62.92;22.15;;;-8.20;86.80;;;;;;5018408;28;20056;-73
2021/12/27 03:10:10;;;;;;;56.53;22.95;;;-8.20;86.90;;;;;;5036165;28;20051;-75
2021/12/27 03:12:38;;;;;;;58.25;19.95;;;-8.30;86.70;;;;;;5036193;28;20490;-74
2021/12/27 03:15:05;;;;;;;51.30;19.27;;;-8.30;86.70;;;;;;5018224;28;20116;-75
2021/12/27 03:17:31;;;;;;;57.17;20.10;;;-8.30;87.50;;;;;;5036452;28;20482;-75
2021/12/27 03:19:56;;;;;;;65.45;19.90;;;-8.30;86.70;;;;;;5018595;28;20067;-75
2021/12/27 03:22:22;;;;;;;61.08;21.48;;;-8.30;86.80;;;;;;5036337;28;20025;-76
2021/12/27 03:24:48;;;;;;;52.70;21.52;;;-8.30;86.80;;;;;;5035916;28;20033;-75
2021/12/27 03:27:13;;;;;;;68.15;22.40;;;-8.30;86.90;;;;;;5035860;28;20490;-74
2021/12/27 03:29:39;;;;;;;48.17;19.55;;;-8.30;87.00;;;;;;5036109;28;20490;-76
2021/12/27 03:32:05;;;;;;;60.22;21.25;;;-8.30;87.10;;;;;;5036785;28;20018;-76
2021/12/27 03:34:33;;;;;;;72.30;22.80;;;-8.30;87.10;;;;;;5037538;28;20494;-75
2021/12/27 03:36:59;;;;;;;61.97;21.58;;;-8.30;87.90;;;;;;5037082;28;20053;-75
2021/12/27 03:39:24;;;;;;;62.88;22.52;;;-8.40;87.10;;;;;;5036972;28;20099;-76
2021/12/27 03:41:50;;;;;;;56.67;21.95;;;-8.30;87.40;;;;;;5036968;28;20375;-74
2021/12/27 03:44:16;;;;;;;64.45;22.05;;;-8.40;87.40;;;;;;5037123;28;20544;-75
2021/12/27 03:46:42;;;;;;;69.03;21.77;;;-8.30;87.50;;;;;;5037176;28;20371;-73
2021/12/27 03:49:07;;;;;;;56.92;21.27;;;-8.30;87.30;;;;;;5036857;28;20045;-75
2021/12/27 03:51:33;;;;;;;61.53;22.67;;;-8.30;87.30;;;;;;5036738;28;20087;-75
2021/12/27 03:53:59;;;;;;;59.05;23.73;;;-8.30;87.30;;;;;;5020136;28;20464;-75
2021/12/27 03:56:24;;;;;;;69.55;21.88;;;-8.40;87.10;;;;;;5038227;28;20047;-76
2021/12/27 03:59:08;;;;;;;55.03;22.05;;;-8.30;87.90;;;;;;5038765;28;20029;-74
2021/12/27 04:01:33;;;;;;;45.28;20.05;;;-8.40;87.00;;;;;;5040233;28;20538;-76
2021/12/27 04:03:59;;;;;;;61.92;22.15;;;-8.40;87.10;;;;;;5036988;28;20175;-74
2021/12/27 04:06:27;;;;;;;52.40;20.83;;;-8.40;87.20;;;;;;5017632;28;20080;-75
2021/12/27 04:08:52;;;;;;;60.22;21.60;;;-8.40;87.30;;;;;;5034914;28;20060;-74
2021/12/27 04:11:18;;;;;;;61.22;23.15;;;-8.40;87.20;;;;;;5035313;28;20025;-74
2021/12/27 04:13:44;;;;;;;53.65;20.73;;;-8.40;87.10;;;;;;5035342;28;20022;-74
2021/12/27 04:16:10;;;;;;;64.15;22.77;;;-8.40;87.00;;;;;;5035061;28;20044;-75
2021/12/27 04:18:36;;;;;;;67.40;23.15;;;-8.40;87.10;;;;;;5035051;28;20371;-74
2021/12/27 04:21:02;;;;;;;63.60;23.92;;;-8.50;87.20;;;;;;5017087;28;20025;-74
2021/12/27 04:23:28;;;;;;;60.42;23.13;;;-8.40;87.30;;;;;;5034768;28;20087;-74
2021/12/27 04:25:53;;;;;;;60.25;21.63;;;-8.40;88.00;;;;;;5034851;28;20025;-74
2021/12/27 04:28:20;;;;;;;62.83;23.50;;;-8.50;87.10;;;;;;5035024;28;20021;-74
2021/12/27 04:30:46;;;;;;;69.55;23.42;;;-8.50;87.30;;;;;;5034894;28;20120;-73
2021/12/27 04:33:12;;;;;;;74.47;27.25;;;-8.50;87.30;;;;;;5034828;28;20045;-75
2021/12/27 04:35:38;;;;;;;57.08;24.80;;;-8.50;87.20;;;;;;5016831;28;20382;-75
2021/12/27 04:38:04;;;;;;;80.05;25.42;;;-8.60;87.30;;;;;;5034655;28;20087;-75
2021/12/27 04:40:34;;;;;;;80.70;28.30;;;-8.60;87.30;;;;;;5034630;28;20022;-75
2021/12/27 04:43:08;;;;;;;87.38;27.27;;;-8.60;87.30;;;;;;5034764;28;20021;-75
2021/12/27 04:45:34;;;;;;;94.82;28.92;;;-8.60;87.50;;;;;;5034300;28;20029;-75
2021/12/27 04:48:01;;;;;;;105.95;31.10;;;-8.60;87.50;;;;;;5034465;28;20021;-75
2021/12/27 04:50:27;;;;;;;115.75;36.33;;;-8.60;87.40;;;;;;5034085;28;20101;-74
2021/12/27 04:52:53;;;;;;;132.43;36.28;;;-8.60;87.50;;;;;;5034614;28;20053;-75
2021/12/27 04:55:23;;;;;;;124.43;37.47;;;-8.60;87.60;;;;;;5034472;28;20148;-75
2021/12/27 04:57:49;;;;;;;111.85;33.15;;;-8.60;87.60;;;;;;5034173;28;20072;-74
2021/12/27 05:00:16;;;;;;;113.05;35.53;;;-8.70;87.50;;;;;;5034194;28;20030;-75
2021/12/27 05:02:41;;;;;;;99.97;35.15;;;-8.70;87.60;;;;;;5033573;28;20033;-75
2021/12/27 05:05:07;;;;;;;94.30;31.25;;;-8.70;87.80;;;;;;5016131;28;20385;-75
2021/12/27 05:07:33;;;;;;;80.80;25.83;;;-8.70;87.90;;;;;;5016117;28;20159;-75
2021/12/27 05:09:58;;;;;;;71.70;24.92;;;-8.70;87.90;;;;;;5034086;28;20033;-75
2021/12/27 05:12:24;;;;;;;62.25;24.17;;;-8.70;87.80;;;;;;5016152;28;20348;-74
2021/12/27 05:14:50;;;;;;;59.50;22.52;;;-8.70;87.90;;;;;;5033986;28;20090;-75
2021/12/27 05:17:15;;;;;;;76.30;24.38;;;-8.70;88.10;;;;;;5033780;28;20440;-75
2021/12/27 05:19:41;;;;;;;70.28;24.88;;;-8.70;88.30;;;;;;5033766;28;20026;-74
2021/12/27 05:22:07;;;;;;;63.90;25.25;;;-8.70;88.30;;;;;;5034031;28;20363;-73
2021/12/27 05:24:33;;;;;;;75.72;22.30;;;-8.70;88.40;;;;;;5033958;28;20463;-74
2021/12/27 05:26:58;;;;;;;67.15;23.25;;;-8.70;88.40;;;;;;5033843;28;20037;-75
2021/12/27 05:29:24;;;;;;;60.28;23.05;;;-8.70;88.40;;;;;;5033684;28;20408;-74
2021/12/27 05:31:51;;;;;;;68.30;22.40;;;-8.70;88.40;;;;;;5033831;28;20022;-75
2021/12/27 05:34:17;;;;;;;67.68;24.20;;;-8.60;88.50;;;;;;5033543;28;20017;-75
2021/12/27 05:36:44;;;;;;;63.13;22.58;;;-8.60;88.50;;;;;;5015592;28;20132;-75
2021/12/27 05:39:12;;;;;;;79.38;24.30;;;-8.60;88.50;;;;;;5033311;28;20035;-73
2021/12/27 05:41:37;;;;;;;69.88;23.98;;;-8.60;88.50;;;;;;5015722;28;20472;-75
2021/12/27 05:44:03;;;;;;;81.75;28.25;;;-8.60;88.50;;;;;;5015713;28;20105;-75
2021/12/27 05:46:29;;;;;;;66.40;24.55;;;-8.70;88.40;;;;;;5015296;28;20022;-74
2021/12/27 05:48:55;;;;;;;68.13;23.27;;;-8.70;88.40;;;;;;5032859;28;20435;-75
2021/12/27 05:51:20;;;;;;;67.05;23.13;;;-8.70;88.50;;;;;;5033246;28;20022;-74
2021/12/27 05:53:46;;;;;;;66.68;23.55;;;-8.70;88.70;;;;;;5033108;28;20536;-74
2021/12/27 05:56:12;;;;;;;64.88;25.23;;;-8.70;88.90;;;;;;5032685;28;20026;-74
2021/12/27 05:58:37;;;;;;;69.82;23.90;;;-8.70;89.10;;;;;;5032991;28;20025;-75
2021/12/27 06:01:03;;;;;;;60.45;23.23;;;-8.80;89.20;;;;;;5032915;28;20021;-75
2021/12/27 06:03:29;;;;;;;71.53;24.10;;;-8.70;89.50;;;;;;5032837;28;20471;-75
2021/12/27 06:05:54;;;;;;;79.03;23.55;;;-8.70;89.60;;;;;;5033195;28;20032;-74
2021/12/27 06:08:20;;;;;;;58.83;23.55;;;-8.70;89.70;;;;;;5032970;28;20119;-75
2021/12/27 06:10:45;;;;;;;75.05;24.20;;;-8.60;90.00;;;;;;5015689;28;20036;-74
2021/12/27 06:13:11;;;;;;;80.72;27.05;;;-8.60;90.00;;;;;;5015632;28;20056;-76
2021/12/27 06:15:37;;;;;;;69.78;21.88;;;-8.60;89.80;;;;;;5036606;28;20379;-75
2021/12/27 06:18:02;;;;;;;75.32;25.25;;;-8.60;89.80;;;;;;5036713;28;20128;-74
2021/12/27 06:20:28;;;;;;;67.93;24.88;;;-8.60;89.80;;;;;;5018939;28;20021;-76
2021/12/27 06:22:58;;;;;;;57.60;22.52;;;-8.60;89.80;;;;;;5018921;28;20067;-75
2021/12/27 06:25:25;;;;;;;66.53;24.58;;;-8.50;89.80;;;;;;5036952;28;20378;-75
2021/12/27 06:27:51;;;;;;;72.35;23.45;;;-8.50;89.70;;;;;;5036936;28;20118;-73
2021/12/27 06:30:17;;;;;;;75.38;24.58;;;-8.50;89.60;;;;;;5018901;28;20068;-74
2021/12/27 06:32:44;;;;;;;72.60;26.10;;;-8.60;89.50;;;;;;5036994;28;20364;-76
2021/12/27 06:35:11;;;;;;;65.95;25.25;;;-8.60;89.70;;;;;;5036984;28;20022;-74
2021/12/27 06:37:41;;;;;;;55.38;23.70;;;-8.60;89.90;;;;;;5036840;28;20083;-75
2021/12/27 06:40:09;;;;;;;72.22;26.52;;;-8.60;90.00;;;;;;5036601;28;20494;-75
2021/12/27 06:42:35;;;;;;;61.75;23.30;;;-8.60;90.00;;;;;;5037071;28;20025;-75
2021/12/27 06:45:01;;;;;;;71.80;23.60;;;-8.60;90.00;;;;;;5018487;28;20030;-74
2021/12/27 06:47:26;;;;;;;77.57;25.05;;;-8.60;90.00;;;;;;5036506;28;20024;-75
2021/12/27 06:49:53;;;;;;;73.40;25.00;;;-8.60;90.10;;;;;;5036040;28;20021;-75
2021/12/27 06:52:18;;;;;;;69.53;24.45;;;-8.60;90.50;;;;;;5036487;28;20026;-75
2021/12/27 06:54:44;;;;;;;68.70;25.70;;;-8.60;90.20;;;;;;5036262;28;20028;-76
2021/12/27 06:57:10;;;;;;;63.80;24.58;;;-8.60;90.30;;;;;;5018117;28;20021;-75
2021/12/27 06:59:36;;;;;;;80.28;27.63;;;-8.60;90.30;;;;;;5036055;28;20101;-75
2021/12/27 07:02:02;;;;;;;81.75;27.33;;;-8.60;90.30;;;;;;5036240;28;20095;-76
2021/12/27 07:04:28;;;;;;;85.35;29.48;;;-8.60;90.40;;;;;;5018550;28;20048;-76
2021/12/27 07:06:53;;;;;;;77.75;27.45;;;-8.60;90.40;;;;;;5035910;28;20525;-75
2021/12/27 07:09:19;;;;;;;71.10;27.13;;;-8.60;90.50;;;;;;5035710;28;20034;-74
2021/12/27 07:11:45;;;;;;;61.97;24.23;;;-8.50;90.50;;;;;;5035915;28;20036;-74
2021/12/27 07:14:11;;;;;;;76.43;26.98;;;-8.50;90.50;;;;;;5035506;28;20025;-76
2021/12/27 07:16:36;;;;;;;67.63;25.25;;;-8.50;90.50;;;;;;5018080;28;20029;-75
2021/12/27 07:19:02;;;;;;;69.45;27.02;;;-8.50;90.60;;;;;;5017791;28;20387;-75
2021/12/27 07:21:28;;;;;;;71.72;27.35;;;-8.50;90.60;;;;;;5035776;28;20382;-76
2021/12/27 07:23:54;;;;;;;74.18;29.67;;;-8.40;90.70;;;;;;5035340;28;20500;-75
2021/12/27 07:26:19;;;;;;;77.88;26.95;;;-8.40;90.70;;;;;;5034646;28;20021;-75
2021/12/27 07:28:45;;;;;;;72.45;25.95;;;-8.30;90.60;;;;;;5035426;28;20018;-75
2021/12/27 07:31:11;;;;;;;82.70;28.80;;;-8.30;90.60;;;;;;5017381;28;20028;-75
2021/12/27 07:33:37;;;;;;;89.70;31.05;;;-8.20;90.60;;;;;;5017539;28;20095;-73
2021/12/27 07:36:06;;;;;;;78.75;26.05;;;-8.20;90.60;;;;;;5017428;28;20467;-75
2021/12/27 07:38:32;;;;;;;83.13;27.55;;;-8.20;90.50;;;;;;5035159;28;20076;-77
2021/12/27 07:40:57;;;;;;;73.18;26.20;;;-8.20;90.50;;;;;;5035042;28;20485;-74
2021/12/27 07:43:23;;;;;;;76.32;27.60;;;-8.10;90.60;;;;;;5034903;28;20026;-76
2021/12/27 07:45:49;;;;;;;90.25;28.70;;;-8.10;90.60;;;;;;5035091;28;20041;-76
2021/12/27 07:48:14;;;;;;;77.50;26.35;;;-8.00;90.70;;;;;;5017266;28;20017;-76
2021/12/27 07:50:40;;;;;;;84.20;29.33;;;-8.00;90.70;;;;;;5035164;28;20060;-76
2021/12/27 07:53:06;;;;;;;75.28;29.38;;;-8.00;90.70;;;;;;5035091;28;20100;-76
2021/12/27 07:55:32;;;;;;;83.60;31.73;;;-7.90;90.80;;;;;;5035890;28;20055;-76
2021/12/27 07:57:59;;;;;;;75.20;27.67;;;-7.80;91.20;;;;;;5040890;28;20025;-76
2021/12/27 08:00:25;;;;;;;82.80;29.02;;;-7.80;90.90;;;;;;5038803;28;20025;-76
2021/12/27 08:02:51;;;;;;;79.05;28.83;;;-7.70;90.90;;;;;;5035773;28;20026;-73
2021/12/27 08:05:18;;;;;;;82.45;28.70;;;-7.70;90.80;;;;;;5034877;28;20033;-75
2021/12/27 08:07:44;;;;;;;79.45;30.13;;;-7.60;90.80;;;;;;5017295;28;20026;-74
2021/12/27 08:10:11;;;;;;;73.90;28.98;;;-7.60;90.80;;;;;;5034834;28;20091;-77
2021/12/27 08:12:38;;;;;;;89.97;30.60;;;-7.50;90.70;;;;;;5034539;28;20021;-75
2021/12/27 08:15:06;;;;;;;68.97;29.58;;;-7.50;90.70;;;;;;5034539;28;20029;-75
2021/12/27 08:17:32;;;;;;;77.65;28.83;;;-7.50;90.70;;;;;;5035081;28;20025;-75
2021/12/27 08:19:58;;;;;;;83.85;29.60;;;-7.40;90.90;;;;;;5037308;28;20167;-75
2021/12/27 08:22:24;;;;;;;78.93;31.35;;;-7.40;90.90;;;;;;5039024;28;20111;-73
2021/12/27 08:24:50;;;;;;;78.95;30.20;;;-7.30;91.00;;;;;;5019736;28;20030;-75
2021/12/27 08:27:16;;;;;;;91.10;30.90;;;-7.20;91.00;;;;;;5038410;28;20026;-75
2021/12/27 08:29:42;;;;;;;78.38;31.15;;;-7.10;90.90;;;;;;5034672;28;20501;-74
2021/12/27 08:32:08;;;;;;;79.15;31.50;;;-7.10;90.80;;;;;;5034646;28;20022;-74
2021/12/27 08:34:33;;;;;;;83.05;30.75;;;-7.00;90.90;;;;;;5034432;28;20033;-75
2021/12/27 08:37:00;;;;;;;85.28;31.85;;;-6.90;91.20;;;;;;5033690;28;20534;-74
2021/12/27 08:39:25;;;;;;;86.03;33.25;;;-6.80;91.40;;;;;;5033704;28;20113;-76
2021/12/27 08:41:51;;;;;;;81.47;32.05;;;-6.60;91.70;;;;;;5034232;28;20100;-74
2021/12/27 08:44:17;;;;;;;90.47;34.45;;;-6.40;91.80;;;;;;5034284;28;20497;-75
2021/12/27 08:46:43;;;;;;;81.70;32.88;;;-6.20;91.60;;;;;;5034459;28;20029;-75
2021/12/27 08:49:09;;;;;;;82.95;32.83;;;-6.00;91.60;;;;;;5034359;28;20022;-75
2021/12/27 08:51:35;;;;;;;96.55;37.13;;;-5.80;90.90;;;;;;5016539;28;20108;-74
2021/12/27 08:54:05;;;;;;;87.03;33.22;;;-5.70;90.70;;;;;;5016042;28;20459;-75
2021/12/27 08:56:31;;;;;;;77.03;32.72;;;-5.50;90.30;;;;;;5033730;28;20036;-75
2021/12/27 08:58:57;;;;;;;88.57;34.05;;;-5.40;89.60;;;;;;5033805;28;20112;-75
2021/12/27 09:01:24;;;;;;;87.03;34.63;;;-5.30;89.30;;;;;;5033834;28;20025;-74
2021/12/27 09:03:50;;;;;;;88.43;33.83;;;-5.20;88.20;;;;;;5033955;28;20029;-75
2021/12/27 09:06:15;;;;;;;88.43;33.22;;;-5.20;87.50;;;;;;5015868;28;20018;-75
2021/12/27 09:08:41;;;;;;;75.05;32.95;;;-5.00;89.10;;;;;;5033643;28;20394;-74
2021/12/27 09:11:07;;;;;;;83.38;31.75;;;-4.90;88.40;;;;;;5033733;28;20482;-76
2021/12/27 09:13:36;;;;;;;79.82;33.92;;;-4.70;87.30;;;;;;5033616;28;20030;-74
2021/12/27 09:16:02;;;;;;;80.18;31.45;;;-4.60;86.70;;;;;;5033676;28;20057;-74
2021/12/27 09:18:32;;;;;;;73.78;30.90;;;-4.50;86.60;;;;;;5033417;28;20025;-76
2021/12/27 09:20:58;;;;;;;77.97;31.67;;;-4.30;86.10;;;;;;5033318;28;20022;-75
2021/12/27 09:23:24;;;;;;;79.68;32.50;;;-4.20;84.80;;;;;;5033596;28;20065;-75
2021/12/27 09:25:50;;;;;;;73.80;28.40;;;-4.10;83.90;;;;;;5033432;28;20123;-74
2021/12/27 09:28:16;;;;;;;70.65;29.85;;;-4.00;82.90;;;;;;5033282;28;20031;-73
2021/12/27 09:30:42;;;;;;;72.95;31.60;;;-3.90;82.70;;;;;;5033648;28;20022;-75
2021/12/27 09:33:08;;;;;;;71.72;30.42;;;-3.80;82.10;;;;;;5015682;28;20419;-74
2021/12/27 09:35:35;;;;;;;70.65;28.88;;;-3.70;81.40;;;;;;5015782;28;20017;-76
2021/12/27 09:38:00;;;;;;;78.07;28.42;;;-3.70;80.90;;;;;;4999235;28;20031;-75
2021/12/27 09:40:26;;;;;;;71.07;32.17;;;-3.70;80.40;;;;;;5033286;28;20017;-75
2021/12/27 09:42:53;;;;;;;80.13;30.80;;;-3.60;80.30;;;;;;5033176;28;20029;-75
2021/12/27 09:45:20;;;;;;;73.30;28.83;;;-3.60;80.20;;;;;;5033282;28;20017;-75
2021/12/27 09:47:47;;;;;;;72.55;30.05;;;-3.70;79.70;;;;;;5033103;28;20463;-74
2021/12/27 09:50:27;;;;;;;64.85;28.52;;;-3.60;79.90;;;;;;5032775;28;20076;-74
2021/12/27 09:52:53;;;;;;;70.15;27.55;;;-3.70;79.80;;;;;;5015342;28;20026;-74
2021/12/27 09:55:18;;;;;;;67.82;28.95;;;-3.60;80.60;;;;;;5033065;28;20036;-74
2021/12/27 09:57:44;;;;;;;71.10;30.02;;;-3.60;80.00;;;;;;5015116;28;20033;-74
2021/12/27 10:00:11;;;;;;;65.60;27.63;;;-3.60;80.20;;;;;;5032981;28;20022;-74
2021/12/27 10:02:39;;;;;;;80.20;31.58;;;-3.50;80.30;;;;;;5032951;28;20112;-75
2021/12/27 10:05:05;;;;;;;72.68;28.75;;;-3.50;80.60;;;;;;5032656;28;20033;-76
2021/12/27 10:07:31;;;;;;;70.40;30.52;;;-3.40;79.90;;;;;;5032622;28;20517;-74
2021/12/27 10:09:59;;;;;;;73.43;31.15;;;-3.40;79.20;;;;;;5032854;28;20021;-74
2021/12/27 10:12:28;;;;;;;66.95;27.77;;;-3.40;79.30;;;;;;5015343;28;20026;-75
2021/12/27 10:14:59;;;;;;;60.38;28.17;;;-3.30;79.90;;;;;;5015531;28;20552;-76
2021/12/27 10:17:25;;;;;;;65.82;27.35;;;-3.20;80.00;;;;;;5033040;28;20025;-76
2021/12/27 10:19:53;;;;;;;65.65;27.58;;;-3.10;79.70;;;;;;5032599;28;20053;-76
2021/12/27 10:22:20;;;;;;;64.05;26.80;;;-3.10;79.30;;;;;;5015351;28;20344;-75
2021/12/27 10:24:48;;;;;;;66.63;28.50;;;-3.10;79.40;;;;;;5032975;28;20072;-74
2021/12/27 10:27:14;;;;;;;62.50;28.95;;;-3.00;79.30;;;;;;5032748;28;20021;-76
2021/12/27 10:29:41;;;;;;;68.10;27.63;;;-3.00;79.10;;;;;;5014898;28;20360;-74
2021/12/27 10:32:13;;;;;;;63.00;28.17;;;-3.00;78.80;;;;;;5032448;28;20101;-75
2021/12/27 10:34:52;;;;;;;64.97;29.25;;;-3.00;78.30;;;;;;5014868;28;20538;-74
2021/12/27 10:37:26;;;;;;;72.60;30.33;;;-3.00;78.30;;;;;;5032746;28;20032;-75
2021/12/27 10:40:03;;;;;;;80.55;32.67;;;-3.00;78.30;;;;;;5032727;28;20030;-74
2021/12/27 10:42:35;;;;;;;77.30;30.27;;;-3.00;78.10;;;;;;5032594;28;20058;-75
2021/12/27 10:45:03;;;;;;;;;;;-3.10;78.20;;;;;;5033382;28;20076;-75
2021/12/27 10:47:29;;;;;;;75.07;29.58;;;-3.00;79.10;;;;;;5032688;28;19947;-75
2021/12/27 10:50:02;;;;;;;70.65;31.20;;;-3.00;79.50;;;;;;5032724;28;20029;-75
2021/12/27 10:53:01;;;;;;;74.93;30.33;;;-2.90;79.70;;;;;;5032800;28;20113;-74
2021/12/27 10:55:38;;;;;;;71.22;31.17;;;-2.90;79.40;;;;;;4973006;28;20026;-74
2021/12/27 10:58:14;;;;;;;72.10;29.48;;;-2.90;78.70;;;;;;5015994;28;20052;-74
2021/12/27 11:00:40;;;;;;;65.38;28.52;;;-2.90;79.10;;;;;;5015436;28;20076;-75
2021/12/27 11:03:06;;;;;;;70.13;27.90;;;-2.90;79.30;;;;;;5018506;28;20021;-74
2021/12/27 11:05:35;;;;;;;82.07;31.48;;;-2.90;79.20;;;;;;5018365;28;20083;-74
2021/12/27 11:08:05;;;;;;;81.32;31.17;;;-2.90;79.30;;;;;;5013432;28;20041;-75
2021/12/27 11:10:35;;;;;;;74.53;31.73;;;-2.90;79.20;;;;;;4982718;28;20072;-73
2021/12/27 11:13:02;;;;;;;78.28;33.92;;;-2.90;79.20;;;;;;5016361;28;20030;-75
2021/12/27 11:15:33;;;;;;;87.35;32.88;;;-3.00;79.40;;;;;;5016144;28;20467;-74
2021/12/27 11:17:59;;;;;;;72.22;30.67;;;-3.00;79.80;;;;;;5016036;28;20475;-75
2021/12/27 11:20:25;;;;;;;81.13;33.35;;;-3.00;80.40;;;;;;5016231;28;20029;-75
2021/12/27 11:22:57;;;;;;;69.80;32.95;;;-3.00;80.40;;;;;;5016107;28;20077;-73
2021/12/27 11:25:30;;;;;;;76.32;35.15;;;-3.00;80.70;;;;;;5015851;28;20033;-75
2021/12/27 11:27:57;;;;;;;83.97;34.80;;;-3.00;81.00;;;;;;5015898;28;20483;-75
2021/12/27 11:30:26;;;;;;;82.60;33.97;;;-3.00;81.40;;;;;;4998097;28;20378;-76
2021/12/27 11:33:13;;;;;;;80.85;33.88;;;-2.90;81.90;;;;;;4998545;28;20030;-76
2021/12/27 11:36:01;;;;;;;84.55;34.35;;;-2.90;81.80;;;;;;5015782;28;20377;-77
2021/12/27 11:38:43;;;;;;;74.78;33.28;;;-2.90;81.70;;;;;;4998137;28;20116;-75
2021/12/27 11:41:36;;;;;;;79.05;35.83;;;-2.80;81.00;;;;;;5015734;28;20096;-75
2021/12/27 11:44:09;;;;;;;73.55;34.45;;;-2.80;81.10;;;;;;5013420;28;20038;-76
2021/12/27 11:46:46;;;;;;;81.32;36.05;;;-2.70;81.10;;;;;;5019074;28;20026;-75
2021/12/27 11:49:13;;;;;;;79.03;33.97;;;-2.70;80.70;;;;;;5017821;28;20030;-75
2021/12/27 11:51:40;;;;;;;85.35;36.72;;;-2.70;80.50;;;;;;5017396;28;20025;-76
2021/12/27 11:54:27;;;;;;;83.78;36.40;;;-2.70;80.10;;;;;;4998550;28;20037;-76
2021/12/27 11:56:53;;;;;;;83.35;35.65;;;-2.60;80.10;;;;;;4998273;28;20029;-74
2021/12/27 11:59:24;;;;;;;89.20;34.92;;;-2.60;80.30;;;;;;5015493;28;20032;-73
2021/12/27 12:01:51;;;;;;;;;;;-2.60;80.50;;;;;;5015837;28;20026;-75
2021/12/27 12:04:42;;;;;;;76.20;31.40;;;-2.50;80.90;;;;;;5015617;28;19932;-75
2021/12/27 12:07:10;;;;;;;80.32;34.97;;;-2.40;80.90;;;;;;5015421;28;20037;-75
2021/12/27 12:09:46;;;;;;;85.35;34.58;;;-2.40;80.70;;;;;;5033078;28;20045;-75
2021/12/27 12:12:14;;;;;;;90.97;37.42;;;-2.30;80.90;;;;;;5034715;28;20040;-75
2021/12/27 12:14:40;;;;;;;91.72;36.95;;;-2.30;80.30;;;;;;5034852;28;20049;-74
2021/12/27 12:17:14;;;;;;;82.20;34.17;;;-2.20;80.30;;;;;;5017326;28;20091;-76
2021/12/27 12:19:48;;;;;;;86.25;35.85;;;-2.20;79.90;;;;;;5034943;28;20029;-75
2021/12/27 12:22:35;;;;;;;85.88;36.10;;;-2.10;79.80;;;;;;5034650;28;20029;-75
2021/12/27 12:25:14;;;;;;;87.88;36.00;;;-2.10;79.80;;;;;;5016571;28;20061;-75
2021/12/27 12:27:54;;;;;;;82.63;35.75;;;-2.00;79.70;;;;;;5034735;28;20348;-74
2021/12/27 12:30:21;;;;;;;75.07;36.60;;;-1.90;79.70;;;;;;5035190;28;20049;-75
2021/12/27 12:33:12;;;;;;;82.10;38.05;;;-1.90;79.40;;;;;;5034540;28;20144;-75